createdAt,value
2018-01-23T00:00:21.459Z,202.60
2018-01-23T00:01:21.337Z,143.10
2018-01-23T00:02:21.200Z,43.20
2018-01-23T00:03:21.068Z,15.10
2018-01-23T00:04:20.938Z,10.20
2018-01-23T00:05:20.811Z,6.10
2018-01-23T00:06:20.677Z,5.70
2018-01-23T00:07:20.548Z,5.70
2018-01-23T00:08:20.418Z,6.70
2018-01-23T00:09:20.288Z,6.00
2018-01-23T00:10:20.159Z,6.10
2018-01-23T00:11:20.029Z,5.60
2018-01-23T00:12:19.897Z,29.00
2018-01-23T00:13:19.770Z,105.20
2018-01-23T00:14:19.635Z,125.20
2018-01-23T00:15:19.506Z,85.80
2018-01-23T00:16:19.379Z,41.00
2018-01-23T00:17:19.247Z,28.80
2018-01-23T00:18:19.117Z,14.10
2018-01-23T00:19:18.985Z,6.60
2018-01-23T00:20:18.858Z,5.60
2018-01-23T00:21:18.729Z,5.00
2018-01-23T00:22:18.595Z,4.60
2018-01-23T00:23:18.467Z,4.60
2018-01-23T00:24:18.340Z,4.20
2018-01-23T00:25:18.213Z,4.20
2018-01-23T00:26:18.077Z,4.70
2018-01-23T00:27:17.948Z,4.60
2018-01-23T00:28:17.818Z,7.90
2018-01-23T00:29:17.688Z,12.90
2018-01-23T00:30:17.559Z,75.60
2018-01-23T00:31:17.426Z,32.00
2018-01-23T00:32:17.299Z,7.80
2018-01-23T00:33:17.171Z,7.60
2018-01-23T00:34:17.038Z,10.60
2018-01-23T00:35:16.908Z,13.70
2018-01-23T00:36:16.780Z,21.90
2018-01-23T00:37:16.647Z,19.90
2018-01-23T00:38:16.516Z,22.10
2018-01-23T00:39:16.386Z,18.80
2018-01-23T00:40:16.260Z,10.40
2018-01-23T00:41:16.129Z,10.50
2018-01-23T00:42:15.999Z,7.80
2018-01-23T00:43:15.872Z,7.40
2018-01-23T00:44:15.737Z,6.90
2018-01-23T00:45:15.607Z,7.10
2018-01-23T00:46:15.477Z,133.60
2018-01-23T00:47:15.349Z,100.20
2018-01-23T00:48:15.219Z,202.80
2018-01-23T00:49:15.090Z,383.20
2018-01-23T00:50:14.960Z,315.10
2018-01-23T00:51:14.827Z,220.70
2018-01-23T00:52:14.699Z,194.40
2018-01-23T00:53:14.569Z,204.60
2018-01-23T00:54:14.439Z,156.30
2018-01-23T00:55:14.308Z,29.70
2018-01-23T00:56:14.177Z,20.10
2018-01-23T00:57:14.047Z,23.00
2018-01-23T00:58:13.917Z,10.20
2018-01-23T00:59:13.787Z,8.70
2018-01-23T01:00:13.657Z,7.60
2018-01-23T01:01:13.527Z,7.30
2018-01-23T01:02:13.398Z,6.00
2018-01-23T01:03:13.267Z,8.60
2018-01-23T01:04:13.136Z,13.40
2018-01-23T01:05:13.005Z,15.30
2018-01-23T01:06:12.874Z,16.40
2018-01-23T01:07:12.747Z,18.70
2018-01-23T01:08:12.613Z,7.00
2018-01-23T01:09:12.484Z,9.00
2018-01-23T01:10:12.357Z,8.40
2018-01-23T01:11:12.223Z,59.20
2018-01-23T01:12:12.093Z,280.70
2018-01-23T01:13:11.964Z,522.30
2018-01-23T01:14:11.833Z,494.00
2018-01-23T01:15:11.701Z,479.00
2018-01-23T01:16:11.572Z,260.80
2018-01-23T01:17:11.441Z,117.90
2018-01-23T01:18:11.309Z,99.20
2018-01-23T01:19:11.182Z,68.90
2018-01-23T01:20:11.050Z,156.00
2018-01-23T01:21:10.922Z,284.90
2018-01-23T01:22:10.791Z,59.60
2018-01-23T01:23:10.659Z,8.30
2018-01-23T01:24:10.531Z,8.70
2018-01-23T01:25:10.398Z,6.10
2018-01-23T01:26:10.268Z,7.20
2018-01-23T01:27:10.139Z,124.30
2018-01-23T01:28:10.009Z,406.10
2018-01-23T01:29:09.879Z,431.40
2018-01-23T01:30:09.744Z,420.80
2018-01-23T01:31:09.614Z,319.30
2018-01-23T01:32:09.484Z,210.00
2018-01-23T01:33:09.354Z,153.60
2018-01-23T01:34:09.222Z,152.50
2018-01-23T01:35:09.095Z,169.90
2018-01-23T01:36:08.962Z,262.10
2018-01-23T01:37:08.833Z,273.90
2018-01-23T01:38:08.700Z,186.70
2018-01-23T01:39:08.570Z,306.20
2018-01-23T01:40:08.440Z,308.10
2018-01-23T01:41:08.317Z,229.50
2018-01-23T01:42:08.179Z,216.00
2018-01-23T01:43:08.049Z,187.50
2018-01-23T01:44:07.917Z,152.40
2018-01-23T01:45:07.790Z,103.00
2018-01-23T01:46:07.659Z,191.50
2018-01-23T01:47:07.529Z,284.80
2018-01-23T01:48:07.395Z,262.60
2018-01-23T01:49:07.268Z,242.30
2018-01-23T01:50:07.135Z,135.00
2018-01-23T01:51:07.005Z,126.50
2018-01-23T01:52:06.876Z,113.10
2018-01-23T01:53:06.751Z,122.80
2018-01-23T01:54:06.669Z,68.90
2018-01-23T01:55:06.486Z,56.10
2018-01-23T01:56:06.356Z,28.00
2018-01-23T01:57:06.225Z,27.30
2018-01-23T01:58:06.095Z,18.50
2018-01-23T01:59:05.962Z,15.10
2018-01-23T02:00:05.835Z,21.00
2018-01-23T02:01:05.709Z,16.70
2018-01-23T02:02:05.574Z,10.20
2018-01-23T02:03:05.446Z,14.30
2018-01-23T02:04:05.317Z,12.30
2018-01-23T02:05:05.186Z,14.90
2018-01-23T02:06:05.057Z,10.80
2018-01-23T02:07:04.923Z,12.50
2018-01-23T02:08:04.794Z,12.50
2018-01-23T02:09:04.665Z,12.40
2018-01-23T02:10:04.534Z,16.10
2018-01-23T02:11:04.406Z,17.60
2018-01-23T02:12:04.275Z,18.40
2018-01-23T02:13:04.145Z,19.90
2018-01-23T02:14:04.015Z,16.10
2018-01-23T02:15:03.884Z,14.90
2018-01-23T02:16:03.754Z,19.00
2018-01-23T02:17:03.625Z,23.00
2018-01-23T02:18:03.496Z,27.10
2018-01-23T02:19:03.365Z,27.40
2018-01-23T02:20:03.236Z,24.10
2018-01-23T02:21:03.106Z,27.90
2018-01-23T02:22:02.975Z,32.50
2018-01-23T02:23:02.846Z,29.90
2018-01-23T02:24:02.717Z,35.80
2018-01-23T02:25:02.584Z,31.50
2018-01-23T02:26:02.458Z,28.90
2018-01-23T02:27:02.325Z,25.50
2018-01-23T02:28:02.197Z,25.40
2018-01-23T02:29:02.062Z,29.90
2018-01-23T02:30:01.934Z,27.70
2018-01-23T02:31:01.805Z,26.70
2018-01-23T02:32:01.675Z,24.20
2018-01-23T02:33:01.548Z,15.60
2018-01-23T02:34:01.415Z,10.10
2018-01-23T02:35:01.284Z,8.20
2018-01-23T02:36:01.156Z,5.90
2018-01-23T02:37:01.023Z,5.20
2018-01-23T02:38:00.895Z,6.00
2018-01-23T02:39:00.762Z,6.70
2018-01-23T02:40:00.634Z,7.10
2018-01-23T02:41:00.509Z,6.10
2018-01-23T02:42:00.372Z,5.70
2018-01-23T02:43:00.286Z,39.00
2018-01-23T02:44:00.112Z,77.60
2018-01-23T02:44:59.983Z,37.80
2018-01-23T02:45:59.849Z,129.80
2018-01-23T02:46:59.719Z,89.70
2018-01-23T02:47:59.588Z,44.30
2018-01-23T02:48:59.461Z,44.00
2018-01-23T02:49:59.326Z,69.60
2018-01-23T02:50:59.197Z,48.60
2018-01-23T02:51:59.069Z,30.60
2018-01-23T02:52:58.938Z,33.40
2018-01-23T02:53:58.808Z,26.30
2018-01-23T02:54:58.678Z,40.40
2018-01-23T02:55:58.547Z,36.10
2018-01-23T02:56:58.418Z,30.60
2018-01-23T02:57:58.287Z,37.80
2018-01-23T02:58:58.155Z,44.10
2018-01-23T02:59:58.026Z,31.20
2018-01-23T03:00:57.896Z,48.00
2018-01-23T03:01:57.765Z,106.00
2018-01-23T03:02:57.635Z,71.80
2018-01-23T03:03:57.507Z,111.10
2018-01-23T03:04:57.379Z,124.80
2018-01-23T03:05:57.246Z,115.20
2018-01-23T03:06:57.116Z,54.00
2018-01-23T03:07:56.985Z,94.20
2018-01-23T03:08:56.856Z,70.00
2018-01-23T03:09:56.728Z,16.50
2018-01-23T03:10:56.597Z,8.00
2018-01-23T03:11:56.468Z,9.00
2018-01-23T03:12:56.339Z,10.40
2018-01-23T03:13:56.207Z,13.30
2018-01-23T03:14:56.077Z,11.50
2018-01-23T03:15:55.946Z,8.00
2018-01-23T03:16:55.817Z,9.00
2018-01-23T03:17:55.685Z,8.00
2018-01-23T03:18:55.557Z,9.50
2018-01-23T03:19:55.426Z,13.10
2018-01-23T03:20:55.296Z,16.40
2018-01-23T03:21:55.166Z,15.60
2018-01-23T03:22:55.038Z,18.80
2018-01-23T03:23:54.908Z,18.80
2018-01-23T03:24:54.778Z,18.80
2018-01-23T03:25:54.648Z,18.00
2018-01-23T03:26:54.518Z,17.90
2018-01-23T03:27:54.388Z,14.90
2018-01-23T03:28:54.259Z,13.20
2018-01-23T03:29:54.128Z,14.80
2018-01-23T03:30:53.999Z,13.00
2018-01-23T03:31:53.871Z,13.10
2018-01-23T03:32:53.739Z,12.20
2018-01-23T03:33:53.609Z,10.50
2018-01-23T03:34:53.480Z,11.50
2018-01-23T03:35:53.348Z,27.80
2018-01-23T03:36:53.219Z,31.10
2018-01-23T03:37:53.089Z,29.10
2018-01-23T03:38:52.960Z,10.00
2018-01-23T03:39:52.830Z,14.70
2018-01-23T03:40:52.701Z,247.20
2018-01-23T03:41:52.567Z,253.10
2018-01-23T03:42:52.440Z,245.10
2018-01-23T03:43:52.311Z,374.30
2018-01-23T03:44:52.179Z,490.80
2018-01-23T03:45:52.049Z,427.20
2018-01-23T03:46:51.923Z,299.50
2018-01-23T03:47:51.790Z,149.60
2018-01-23T03:48:51.659Z,166.00
2018-01-23T03:49:51.528Z,223.70
2018-01-23T03:50:51.395Z,153.30
2018-01-23T03:51:51.267Z,59.60
2018-01-23T03:52:51.138Z,38.20
2018-01-23T03:53:51.005Z,26.60
2018-01-23T03:54:50.876Z,28.90
2018-01-23T03:55:50.746Z,59.80
2018-01-23T03:56:50.614Z,42.10
2018-01-23T03:57:50.485Z,27.30
2018-01-23T03:58:50.354Z,30.50
2018-01-23T03:59:50.222Z,15.20
2018-01-23T04:00:50.096Z,20.80
2018-01-23T04:01:49.963Z,120.60
2018-01-23T04:02:49.833Z,38.60
2018-01-23T04:03:49.703Z,92.60
2018-01-23T04:04:49.575Z,73.80
2018-01-23T04:05:49.444Z,57.90
2018-01-23T04:06:49.313Z,37.40
2018-01-23T04:07:49.184Z,21.00
2018-01-23T04:08:49.054Z,13.50
2018-01-23T04:09:48.924Z,14.80
2018-01-23T04:10:48.794Z,18.30
2018-01-23T04:11:48.663Z,21.10
2018-01-23T04:12:48.534Z,11.10
2018-01-23T04:13:48.405Z,8.40
2018-01-23T04:14:48.275Z,3.60
2018-01-23T04:15:48.144Z,7.60
2018-01-23T04:16:48.016Z,9.20
2018-01-23T04:17:47.883Z,10.10
2018-01-23T04:18:47.754Z,7.00
2018-01-23T04:19:47.623Z,10.80
2018-01-23T04:20:47.496Z,5.10
2018-01-23T04:21:47.361Z,14.70
2018-01-23T04:22:47.234Z,34.90
2018-01-23T04:23:47.103Z,27.20
2018-01-23T04:24:46.976Z,102.90
2018-01-23T04:25:46.845Z,85.40
2018-01-23T04:26:46.716Z,38.00
2018-01-23T04:27:46.584Z,12.20
2018-01-23T04:28:46.453Z,10.60
2018-01-23T04:29:46.324Z,10.70
2018-01-23T04:30:46.194Z,12.80
2018-01-23T04:31:46.062Z,14.30
2018-01-23T04:32:45.935Z,13.00
2018-01-23T04:33:45.804Z,59.40
2018-01-23T04:34:45.679Z,317.10
2018-01-23T04:35:45.542Z,195.40
2018-01-23T04:36:45.413Z,266.90
2018-01-23T04:37:45.284Z,338.20
2018-01-23T04:38:45.153Z,448.80
2018-01-23T04:39:45.024Z,452.70
2018-01-23T04:40:44.898Z,349.40
2018-01-23T04:41:44.763Z,307.30
2018-01-23T04:42:44.635Z,262.20
2018-01-23T04:43:44.503Z,131.40
2018-01-23T04:44:44.372Z,22.20
2018-01-23T04:45:44.242Z,14.50
2018-01-23T04:46:44.130Z,7.00
2018-01-23T04:47:43.982Z,4.60
2018-01-23T04:48:43.853Z,4.50
2018-01-23T04:49:43.723Z,5.00
2018-01-23T04:50:43.592Z,3.30
2018-01-23T04:51:43.462Z,3.80
2018-01-23T04:52:43.333Z,4.70
2018-01-23T04:53:43.201Z,179.60
2018-01-23T04:54:43.074Z,126.90
2018-01-23T04:55:42.942Z,117.50
2018-01-23T04:56:42.810Z,117.60
2018-01-23T04:57:42.679Z,214.30
2018-01-23T04:58:42.548Z,213.70
2018-01-23T04:59:42.422Z,202.70
2018-01-23T05:00:42.289Z,350.40
2018-01-23T05:01:42.159Z,396.50
2018-01-23T05:02:42.030Z,182.10
2018-01-23T05:03:41.899Z,89.50
2018-01-23T05:04:41.770Z,100.30
2018-01-23T05:05:41.636Z,125.70
2018-01-23T05:06:41.505Z,127.90
2018-01-23T05:07:41.378Z,78.40
2018-01-23T05:08:41.248Z,141.10
2018-01-23T05:09:41.115Z,92.80
2018-01-23T05:10:40.986Z,61.60
2018-01-23T05:11:40.856Z,64.60
2018-01-23T05:12:40.727Z,46.60
2018-01-23T05:13:40.596Z,60.90
2018-01-23T05:14:40.465Z,107.90
2018-01-23T05:15:40.337Z,126.20
2018-01-23T05:16:40.211Z,128.70
2018-01-23T05:17:40.077Z,46.10
2018-01-23T05:18:39.983Z,27.70
2018-01-23T05:19:39.817Z,60.70
2018-01-23T05:20:39.708Z,106.00
2018-01-23T05:21:39.556Z,89.80
2018-01-23T05:22:39.428Z,55.80
2018-01-23T05:23:39.295Z,52.40
2018-01-23T05:24:39.167Z,59.10
2018-01-23T05:25:39.038Z,87.40
2018-01-23T05:26:38.906Z,77.30
2018-01-23T05:27:38.782Z,53.80
2018-01-23T05:28:38.648Z,23.20
2018-01-23T05:29:38.520Z,7.70
2018-01-23T05:30:38.387Z,3.70
2018-01-23T05:31:38.257Z,2.70
2018-01-23T05:32:38.127Z,2.50
2018-01-23T05:33:38.010Z,2.60
2018-01-23T05:34:37.870Z,3.00
2018-01-23T05:35:37.739Z,2.90
2018-01-23T05:36:37.607Z,2.80
2018-01-23T05:37:37.477Z,2.70
2018-01-23T05:38:37.348Z,3.10
2018-01-23T05:39:37.218Z,3.40
2018-01-23T05:40:37.088Z,3.40
2018-01-23T05:41:36.955Z,3.40
2018-01-23T05:42:36.872Z,3.70
2018-01-23T05:43:36.699Z,3.80
2018-01-23T05:44:36.568Z,3.70
2018-01-23T05:45:36.438Z,3.30
2018-01-23T05:46:36.309Z,2.60
2018-01-23T05:47:36.179Z,3.10
2018-01-23T05:48:36.046Z,2.80
2018-01-23T05:49:35.918Z,207.80
2018-01-23T05:50:35.788Z,306.20
2018-01-23T05:51:35.659Z,460.10
2018-01-23T05:52:35.528Z,556.20
2018-01-23T05:53:35.396Z,637.20
2018-01-23T05:54:35.345Z,578.30
2018-01-23T05:55:35.135Z,547.40
2018-01-23T05:56:35.005Z,512.60
2018-01-23T05:57:34.876Z,506.40
2018-01-23T05:58:34.745Z,392.70
2018-01-23T05:59:34.612Z,249.60
2018-01-23T06:00:34.486Z,248.60
2018-01-23T06:01:34.352Z,91.70
2018-01-23T06:02:34.224Z,91.10
2018-01-23T06:03:34.091Z,185.00
2018-01-23T06:04:33.962Z,217.30
2018-01-23T06:05:33.830Z,162.80
2018-01-23T06:06:33.701Z,197.30
2018-01-23T06:07:33.569Z,169.90
2018-01-23T06:08:33.450Z,147.30
2018-01-23T06:09:33.311Z,143.80
2018-01-23T06:10:33.181Z,203.80
2018-01-23T06:11:33.052Z,119.00
2018-01-23T06:12:32.921Z,21.60
2018-01-23T06:13:32.787Z,13.60
2018-01-23T06:14:32.657Z,16.70
2018-01-23T06:15:32.527Z,14.50
2018-01-23T06:16:32.397Z,13.80
2018-01-23T06:17:32.270Z,23.20
2018-01-23T06:18:32.134Z,37.20
2018-01-23T06:19:32.005Z,23.80
2018-01-23T06:20:31.875Z,22.50
2018-01-23T06:21:31.745Z,61.80
2018-01-23T06:22:31.617Z,42.50
2018-01-23T06:23:31.490Z,62.70
2018-01-23T06:24:31.378Z,67.90
2018-01-23T06:25:31.221Z,56.00
2018-01-23T06:26:31.093Z,59.60
2018-01-23T06:27:30.962Z,101.70
2018-01-23T06:28:30.835Z,126.70
2018-01-23T06:29:30.705Z,48.60
2018-01-23T06:30:30.572Z,38.40
2018-01-23T06:31:30.444Z,50.70
2018-01-23T06:32:30.313Z,67.80
2018-01-23T06:33:30.182Z,64.40
2018-01-23T06:34:30.053Z,71.10
2018-01-23T06:35:29.978Z,142.10
2018-01-23T06:36:29.794Z,60.50
2018-01-23T06:37:29.661Z,91.70
2018-01-23T06:38:29.532Z,93.70
2018-01-23T06:39:29.399Z,93.80
2018-01-23T06:40:29.271Z,72.70
2018-01-23T06:41:29.146Z,52.60
2018-01-23T06:42:29.010Z,51.40
2018-01-23T06:43:28.883Z,41.60
2018-01-23T06:44:28.752Z,41.60
2018-01-23T06:45:28.621Z,91.30
2018-01-23T06:46:28.491Z,89.10
2018-01-23T06:47:28.360Z,67.10
2018-01-23T06:48:28.229Z,57.60
2018-01-23T06:49:28.099Z,63.90
2018-01-23T06:50:27.981Z,64.90
2018-01-23T06:51:27.850Z,43.70
2018-01-23T06:52:27.710Z,63.40
2018-01-23T06:53:27.579Z,35.40
2018-01-23T06:54:27.449Z,29.40
2018-01-23T06:55:27.322Z,18.90
2018-01-23T06:56:27.191Z,17.40
2018-01-23T06:57:27.060Z,15.20
2018-01-23T06:58:26.928Z,14.00
2018-01-23T06:59:26.800Z,11.90
2018-01-23T07:00:26.671Z,11.30
2018-01-23T07:01:26.539Z,11.50
2018-01-23T07:02:26.410Z,10.20
2018-01-23T07:03:26.278Z,10.30
2018-01-23T07:04:26.152Z,9.20
2018-01-23T07:05:26.017Z,10.90
2018-01-23T07:06:25.889Z,10.10
2018-01-23T07:07:25.760Z,10.70
2018-01-23T07:08:25.630Z,29.80
2018-01-23T07:09:25.499Z,54.80
2018-01-23T07:10:25.368Z,139.10
2018-01-23T07:11:25.240Z,111.70
2018-01-23T07:12:25.109Z,64.80
2018-01-23T07:13:24.979Z,51.80
2018-01-23T07:14:24.848Z,33.20
2018-01-23T07:15:24.718Z,62.00
2018-01-23T07:16:24.588Z,91.40
2018-01-23T07:17:24.459Z,21.90
2018-01-23T07:18:24.331Z,11.90
2018-01-23T07:19:24.200Z,13.90
2018-01-23T07:20:24.070Z,15.10
2018-01-23T07:21:23.938Z,14.40
2018-01-23T07:22:23.812Z,15.30
2018-01-23T07:23:23.680Z,14.20
2018-01-23T07:24:23.583Z,41.00
2018-01-23T07:25:23.421Z,52.60
2018-01-23T07:26:23.340Z,38.90
2018-01-23T07:27:23.158Z,82.00
2018-01-23T07:28:23.035Z,66.90
2018-01-23T07:29:22.898Z,103.60
2018-01-23T07:30:22.771Z,157.40
2018-01-23T07:31:22.641Z,153.30
2018-01-23T07:32:22.511Z,97.30
2018-01-23T07:33:22.380Z,50.30
2018-01-23T07:34:22.252Z,118.30
2018-01-23T07:35:22.120Z,51.30
2018-01-23T07:36:21.991Z,15.70
2018-01-23T07:37:21.860Z,11.80
2018-01-23T07:38:21.729Z,13.10
2018-01-23T07:39:21.600Z,12.80
2018-01-23T07:40:21.471Z,23.60
2018-01-23T07:41:21.338Z,36.70
2018-01-23T07:42:21.213Z,87.90
2018-01-23T07:43:21.085Z,58.60
2018-01-23T07:44:20.949Z,74.90
2018-01-23T07:45:20.817Z,53.80
2018-01-23T07:46:20.688Z,51.40
2018-01-23T07:47:20.556Z,69.60
2018-01-23T07:48:20.426Z,83.00
2018-01-23T07:49:20.296Z,63.30
2018-01-23T07:50:20.172Z,33.80
2018-01-23T07:51:20.036Z,65.60
2018-01-23T07:52:19.906Z,70.30
2018-01-23T07:53:19.800Z,97.80
2018-01-23T07:54:19.646Z,95.60
2018-01-23T07:55:19.519Z,106.20
2018-01-23T07:56:19.386Z,118.00
2018-01-23T07:57:19.256Z,76.30
2018-01-23T07:58:19.125Z,36.90
2018-01-23T07:59:18.994Z,41.60
2018-01-23T08:00:18.865Z,32.70
2018-01-23T08:01:18.736Z,25.00
2018-01-23T08:02:18.604Z,27.10
2018-01-23T08:03:18.475Z,25.10
2018-01-23T08:04:18.346Z,28.00
2018-01-23T08:05:18.214Z,32.30
2018-01-23T08:06:18.084Z,33.00
2018-01-23T08:07:17.953Z,41.50
2018-01-23T08:08:17.823Z,68.40
2018-01-23T08:09:17.694Z,40.50
2018-01-23T08:10:17.565Z,56.60
2018-01-23T08:11:17.436Z,45.70
2018-01-23T08:12:17.314Z,44.70
2018-01-23T08:13:17.173Z,122.50
2018-01-23T08:14:17.043Z,167.80
2018-01-23T08:15:16.916Z,121.40
2018-01-23T08:16:16.785Z,55.00
2018-01-23T08:17:16.654Z,28.80
2018-01-23T08:18:16.524Z,23.60
2018-01-23T08:19:16.397Z,32.40
2018-01-23T08:20:16.265Z,61.70
2018-01-23T08:21:16.135Z,106.60
2018-01-23T08:22:16.003Z,69.00
2018-01-23T08:23:15.874Z,36.60
2018-01-23T08:24:15.745Z,28.40
2018-01-23T08:25:15.613Z,26.30
2018-01-23T08:26:15.484Z,21.10
2018-01-23T08:27:15.353Z,109.40
2018-01-23T08:28:15.224Z,98.50
2018-01-23T08:29:15.096Z,93.80
2018-01-23T08:30:14.997Z,139.40
2018-01-23T08:31:14.836Z,93.20
2018-01-23T08:32:14.711Z,34.70
2018-01-23T08:33:14.573Z,44.90
2018-01-23T08:34:14.442Z,18.40
2018-01-23T08:35:14.314Z,12.80
2018-01-23T08:36:14.184Z,13.80
2018-01-23T08:37:14.055Z,12.40
2018-01-23T08:38:13.924Z,8.60
2018-01-23T08:39:13.797Z,9.30
2018-01-23T08:40:13.664Z,8.60
2018-01-23T08:41:13.534Z,9.80
2018-01-23T08:42:13.405Z,9.90
2018-01-23T08:43:13.277Z,9.70
2018-01-23T08:44:13.146Z,8.80
2018-01-23T08:45:13.019Z,7.60
2018-01-23T08:46:12.887Z,9.00
2018-01-23T08:47:12.758Z,7.90
2018-01-23T08:48:12.629Z,7.70
2018-01-23T08:49:12.497Z,8.90
2018-01-23T08:50:12.367Z,6.90
2018-01-23T08:51:12.239Z,7.60
2018-01-23T08:52:12.110Z,7.10
2018-01-23T08:53:11.981Z,7.00
2018-01-23T08:54:11.876Z,7.60
2018-01-23T08:55:11.745Z,14.50
2018-01-23T08:56:11.635Z,15.80
2018-01-23T08:57:11.513Z,12.80
2018-01-23T08:58:11.361Z,10.00
2018-01-23T08:59:11.255Z,8.20
2018-01-23T09:00:11.076Z,9.00
2018-01-23T09:01:10.961Z,7.50
2018-01-23T09:02:10.812Z,9.40
2018-01-23T09:03:10.720Z,9.20
2018-01-23T09:04:10.582Z,9.50
2018-01-23T09:05:10.475Z,10.10
2018-01-23T09:06:10.325Z,42.00
2018-01-23T09:07:10.190Z,95.60
2018-01-23T09:08:10.081Z,174.80
2018-01-23T09:09:09.956Z,150.90
2018-01-23T09:10:09.826Z,142.70
2018-01-23T09:11:09.658Z,136.10
2018-01-23T09:12:09.534Z,48.00
2018-01-23T09:13:09.390Z,18.40
2018-01-23T09:14:09.301Z,8.70
2018-01-23T09:15:09.129Z,7.90
2018-01-23T09:16:09.043Z,12.00
2018-01-23T09:17:08.915Z,34.30
2018-01-23T09:18:08.829Z,27.40
2018-01-23T09:19:08.623Z,25.50
2018-01-23T09:20:08.511Z,9.50
2018-01-23T09:21:08.392Z,8.20
2018-01-23T09:22:08.255Z,40.00
2018-01-23T09:23:08.109Z,39.30
2018-01-23T09:24:08.000Z,29.60
2018-01-23T09:25:07.833Z,10.70
2018-01-23T09:26:07.705Z,12.70
2018-01-23T09:27:07.574Z,41.10
2018-01-23T09:28:07.446Z,47.90
2018-01-23T09:29:07.314Z,43.80
2018-01-23T09:30:07.187Z,23.70
2018-01-23T09:31:07.056Z,8.70
2018-01-23T09:32:06.926Z,6.70
2018-01-23T09:33:06.797Z,10.30
2018-01-23T09:34:06.672Z,5.40
2018-01-23T09:35:06.546Z,20.10
2018-01-23T09:36:06.412Z,53.90
2018-01-23T09:37:06.282Z,43.20
2018-01-23T09:38:06.155Z,35.70
2018-01-23T09:39:06.024Z,57.30
2018-01-23T09:40:05.898Z,15.40
2018-01-23T09:41:05.767Z,73.10
2018-01-23T09:42:05.637Z,39.90
2018-01-23T09:43:05.511Z,29.10
2018-01-23T09:44:05.382Z,6.90
2018-01-23T09:45:05.254Z,57.80
2018-01-23T09:46:05.124Z,43.00
2018-01-23T09:47:04.997Z,26.80
2018-01-23T09:48:04.870Z,4.80
2018-01-23T09:49:04.741Z,7.40
2018-01-23T09:50:04.613Z,14.40
2018-01-23T09:51:04.487Z,19.20
2018-01-23T09:52:04.357Z,49.00
2018-01-23T09:53:04.233Z,34.90
2018-01-23T09:54:04.101Z,70.20
2018-01-23T09:55:03.978Z,95.90
2018-01-23T09:56:03.849Z,78.00
2018-01-23T09:57:03.723Z,37.70
2018-01-23T09:58:03.595Z,48.70
2018-01-23T09:59:03.465Z,50.20
2018-01-23T10:00:03.341Z,58.50
2018-01-23T10:01:03.212Z,87.10
2018-01-23T10:02:03.083Z,66.80
2018-01-23T10:03:02.958Z,72.20
2018-01-23T10:04:02.832Z,96.20
2018-01-23T10:05:02.703Z,38.50
2018-01-23T10:06:02.577Z,28.90
2018-01-23T10:07:02.449Z,28.00
2018-01-23T10:08:02.325Z,26.00
2018-01-23T10:09:02.193Z,7.60
2018-01-23T10:10:02.067Z,57.60
2018-01-23T10:11:01.939Z,56.10
2018-01-23T10:12:01.809Z,32.80
2018-01-23T10:13:01.709Z,6.20
2018-01-23T10:14:01.556Z,14.10
2018-01-23T10:15:01.428Z,17.70
2018-01-23T10:16:01.302Z,10.90
2018-01-23T10:17:01.174Z,76.20
2018-01-23T10:18:01.047Z,95.40
2018-01-23T10:19:00.919Z,26.30
2018-01-23T10:20:00.792Z,54.80
2018-01-23T10:21:00.663Z,32.70
2018-01-23T10:22:00.537Z,25.20
2018-01-23T10:23:00.410Z,67.40
2018-01-23T10:24:00.281Z,89.90
2018-01-23T10:25:00.155Z,90.80
2018-01-23T10:26:00.030Z,79.30
2018-01-23T10:26:59.899Z,61.10
2018-01-23T10:27:59.773Z,19.60
2018-01-23T10:28:59.644Z,35.00
2018-01-23T10:29:59.514Z,81.30
2018-01-23T10:30:59.389Z,21.90
2018-01-23T10:31:59.262Z,27.70
2018-01-23T10:32:59.131Z,44.50
2018-01-23T10:33:59.004Z,23.60
2018-01-23T10:34:58.877Z,26.60
2018-01-23T10:35:58.751Z,30.70
2018-01-23T10:36:58.626Z,23.70
2018-01-23T10:37:58.493Z,24.00
2018-01-23T10:38:58.366Z,21.80
2018-01-23T10:39:58.238Z,85.30
2018-01-23T10:40:58.111Z,72.60
2018-01-23T10:41:57.981Z,86.80
2018-01-23T10:42:57.855Z,54.20
2018-01-23T10:43:57.730Z,25.70
2018-01-23T10:44:57.599Z,62.30
2018-01-23T10:45:57.471Z,62.30
2018-01-23T10:46:57.344Z,46.00
2018-01-23T10:47:57.214Z,57.70
2018-01-23T10:48:57.090Z,54.00
2018-01-23T10:49:56.966Z,42.40
2018-01-23T10:50:56.832Z,24.90
2018-01-23T10:51:56.705Z,126.40
2018-01-23T10:52:56.578Z,86.10
2018-01-23T10:53:56.453Z,73.80
2018-01-23T10:54:56.324Z,74.30
2018-01-23T10:55:56.194Z,47.30
2018-01-23T10:56:56.066Z,37.50
2018-01-23T10:57:55.939Z,14.50
2018-01-23T10:58:55.811Z,7.40
2018-01-23T10:59:55.684Z,28.90
2018-01-23T11:00:55.555Z,97.70
2018-01-23T11:01:55.429Z,70.30
2018-01-23T11:02:55.303Z,72.00
2018-01-23T11:03:55.177Z,58.20
2018-01-23T11:04:55.045Z,36.80
2018-01-23T11:05:54.921Z,62.10
2018-01-23T11:06:54.791Z,4.70
2018-01-23T11:07:54.663Z,10.00
2018-01-23T11:08:54.534Z,5.90
2018-01-23T11:09:54.408Z,11.60
2018-01-23T11:10:54.280Z,24.30
2018-01-23T11:11:54.151Z,6.80
2018-01-23T11:12:54.022Z,24.60
2018-01-23T11:13:53.897Z,11.10
2018-01-23T11:14:53.770Z,10.20
2018-01-23T11:15:53.642Z,11.30
2018-01-23T11:16:53.514Z,14.50
2018-01-23T11:17:53.387Z,63.10
2018-01-23T11:18:53.258Z,11.70
2018-01-23T11:19:53.131Z,32.90
2018-01-23T11:20:53.002Z,52.70
2018-01-23T11:21:52.877Z,35.30
2018-01-23T11:22:52.749Z,22.50
2018-01-23T11:23:52.620Z,8.00
2018-01-23T11:24:52.493Z,18.10
2018-01-23T11:25:52.366Z,42.60
2018-01-23T11:26:52.238Z,60.10
2018-01-23T11:27:52.112Z,62.90
2018-01-23T11:28:51.984Z,74.70
2018-01-23T11:29:51.855Z,58.20
2018-01-23T11:30:51.726Z,32.10
2018-01-23T11:31:51.598Z,19.40
2018-01-23T11:32:51.471Z,28.20
2018-01-23T11:33:51.343Z,27.10
2018-01-23T11:34:51.215Z,24.30
2018-01-23T11:35:51.086Z,30.70
2018-01-23T11:36:50.958Z,57.30
2018-01-23T11:37:50.832Z,51.80
2018-01-23T11:38:50.704Z,36.80
2018-01-23T11:39:50.576Z,36.50
2018-01-23T11:40:50.446Z,30.00
2018-01-23T11:41:50.321Z,23.50
2018-01-23T11:42:50.192Z,29.60
2018-01-23T11:43:50.066Z,44.70
2018-01-23T11:44:49.933Z,49.20
2018-01-23T11:45:49.806Z,51.90
2018-01-23T11:46:49.679Z,40.50
2018-01-23T11:47:49.552Z,33.20
2018-01-23T11:48:49.427Z,16.90
2018-01-23T11:49:49.295Z,31.70
2018-01-23T11:50:49.167Z,43.30
2018-01-23T11:51:49.042Z,30.50
2018-01-23T11:52:48.914Z,27.50
2018-01-23T11:53:48.784Z,41.50
2018-01-23T11:54:48.655Z,25.10
2018-01-23T11:55:48.528Z,10.00
2018-01-23T11:56:48.400Z,26.80
2018-01-23T11:57:48.276Z,24.80
2018-01-23T11:58:48.145Z,25.10
2018-01-23T11:59:48.016Z,20.90
2018-01-23T12:00:47.891Z,25.70
2018-01-23T12:01:47.764Z,32.80
2018-01-23T12:02:47.636Z,44.80
2018-01-23T12:03:47.509Z,52.30
2018-01-23T12:04:47.392Z,15.90
2018-01-23T12:05:47.253Z,11.70
2018-01-23T12:06:47.132Z,17.50
2018-01-23T12:07:46.999Z,12.20
2018-01-23T12:08:46.870Z,23.90
2018-01-23T12:09:46.744Z,31.00
2018-01-23T12:10:46.617Z,31.90
2018-01-23T12:11:46.491Z,43.10
2018-01-23T12:12:46.360Z,114.60
2018-01-23T12:13:46.233Z,88.80
2018-01-23T12:14:46.106Z,77.00
2018-01-23T12:15:45.979Z,115.60
2018-01-23T12:16:45.849Z,89.80
2018-01-23T12:17:45.724Z,87.60
2018-01-23T12:18:45.594Z,25.00
2018-01-23T12:19:45.469Z,147.70
2018-01-23T12:20:45.339Z,94.10
2018-01-23T12:21:45.211Z,27.90
2018-01-23T12:22:45.085Z,32.40
2018-01-23T12:23:44.958Z,92.60
2018-01-23T12:24:44.828Z,62.50
2018-01-23T12:25:44.701Z,13.00
2018-01-23T12:26:44.573Z,40.60
2018-01-23T12:27:44.444Z,27.90
2018-01-23T12:28:44.326Z,37.80
2018-01-23T12:29:44.188Z,15.20
2018-01-23T12:30:44.060Z,82.70
2018-01-23T12:31:43.944Z,88.80
2018-01-23T12:32:43.806Z,72.10
2018-01-23T12:33:43.730Z,60.20
2018-01-23T12:34:43.598Z,125.90
2018-01-23T12:35:43.471Z,92.50
2018-01-23T12:36:43.354Z,22.80
2018-01-23T12:37:43.196Z,16.90
2018-01-23T12:38:43.068Z,7.40
2018-01-23T12:39:42.919Z,18.70
2018-01-23T12:40:42.816Z,69.10
2018-01-23T12:41:42.646Z,72.10
2018-01-23T12:42:42.538Z,25.40
2018-01-23T12:43:42.393Z,31.80
2018-01-23T12:44:42.281Z,25.70
2018-01-23T12:45:42.157Z,10.00
2018-01-23T12:46:42.022Z,10.20
2018-01-23T12:47:41.913Z,26.70
2018-01-23T12:48:41.794Z,50.00
2018-01-23T12:49:41.641Z,57.00
2018-01-23T12:50:41.490Z,39.30